Terminal Aerodrome Forecast
Issued by NWS

Home | Current Version | Previous Version | Text Only | Print | Product List | Glossary On
Versions: 1 2 3 4 5 6 7 8 9 10 11 12 13
000
FTUS44 KOUN 251733
TAFWWR
TAF
KWWR 251733Z 2518/2618 01016G25KT P6SM BKN100
      TEMPO 2518/2520 -RA BKN008
     FM260100 01006KT P6SM SKC=

USA.gov is the U.S. government's official web portal to all federal, state and local government web resources and services.